Time;durP1;ratioP1;P1;durP2;ratioP2;P2;SDS_P1;SDS_P2;PMS_P1;PMS_P2;Temp;Humidity;BMP_temperature;BMP_pressure;BME280_temperature;BME280_humidity;BME280_pressure;Samples;Min_cycle;Max_cycle;Signal;HPM_P1;HPM_P2
2023/03/28 00:02:36;;;;;;;24.90;11.30;;;;;;;-2.76;100.00;98380.02;131992;1289;22564;-85
2023/03/28 00:05:40;;;;;;;21.70;10.70;;;;;;;-2.78;100.00;98379.66;132133;1273;22556;-86
2023/03/28 00:08:44;;;;;;;21.40;9.80;;;;;;;-2.82;100.00;98378.70;132180;1289;22580;-87
2023/03/28 00:11:47;;;;;;;20.00;9.30;;;;;;;-2.87;100.00;98376.14;132032;1289;24273;-86
2023/03/28 00:14:50;;;;;;;20.40;10.70;;;;;;;-2.93;100.00;98374.83;132001;1289;22538;-86
2023/03/28 00:17:53;;;;;;;25.60;10.20;;;;;;;-2.96;100.00;98377.43;131953;1289;22565;-85
2023/03/28 00:20:56;;;;;;;16.60;9.20;;;;;;;-3.02;100.00;98376.77;131635;1289;23010;-85
2023/03/28 00:24:00;;;;;;;20.80;9.50;;;;;;;-3.07;100.00;98378.50;131643;1289;22564;-85
2023/03/28 00:27:04;;;;;;;16.30;9.20;;;;;;;-3.12;100.00;98376.27;131913;1287;22667;-86
2023/03/28 00:30:08;;;;;;;25.90;11.20;;;;;;;-3.17;100.00;98380.00;132000;1289;22585;-86
2023/03/28 00:33:11;;;;;;;20.20;11.00;;;;;;;-3.19;100.00;98377.98;132191;1289;22537;-85
2023/03/28 00:36:17;;;;;;;19.70;9.50;;;;;;;-3.18;100.00;98366.59;132204;1289;22650;-86
2023/03/28 00:39:20;;;;;;;31.30;13.80;;;;;;;-3.14;100.00;98365.99;131894;1286;22594;-85
2023/03/28 00:42:22;;;;;;;27.70;11.70;;;;;;;-3.11;100.00;98358.80;132851;1289;22567;-85
2023/03/28 00:45:25;;;;;;;35.40;12.00;;;;;;;-3.13;100.00;98353.15;134256;1289;22593;-85
2023/03/28 00:48:29;;;;;;;34.60;14.20;;;;;;;-3.14;100.00;98358.31;133220;1289;22546;-85
2023/03/28 00:51:32;;;;;;;32.40;11.80;;;;;;;-3.14;100.00;98360.22;132111;1268;25604;-87
2023/03/28 00:54:37;;;;;;;33.30;12.80;;;;;;;-3.18;100.00;98360.65;132184;1289;24242;-86
2023/03/28 00:57:40;;;;;;;24.60;10.30;;;;;;;-3.21;100.00;98368.52;132182;1289;25326;-86
2023/03/28 01:00:45;;;;;;;16.00;9.70;;;;;;;-3.27;100.00;98375.41;132050;1289;25502;-85
2023/03/28 01:03:48;;;;;;;18.70;10.00;;;;;;;-3.32;100.00;98377.98;131913;1289;22658;-86
2023/03/28 01:06:53;;;;;;;22.50;10.00;;;;;;;-3.37;100.00;98379.15;131969;1289;22543;-86
2023/03/28 01:09:56;;;;;;;17.00;9.00;;;;;;;-3.42;100.00;98375.52;131902;1289;25769;-84
2023/03/28 01:12:59;;;;;;;21.70;11.40;;;;;;;-3.45;100.00;98376.38;131875;1289;25995;-85
2023/03/28 01:16:02;;;;;;;24.60;12.70;;;;;;;-3.44;100.00;98379.95;131854;1289;22666;-84
2023/03/28 01:19:05;;;;;;;16.00;9.10;;;;;;;-3.40;100.00;98376.30;131893;1289;22582;-84
2023/03/28 01:22:08;;;;;;;21.80;11.30;;;;;;;-3.35;100.00;98370.52;131604;1289;24393;-85
2023/03/28 01:25:11;;;;;;;22.40;11.10;;;;;;;-3.30;100.00;98362.31;131576;1289;22558;-85
2023/03/28 01:28:15;;;;;;;23.70;11.00;;;;;;;-3.27;100.00;98359.36;131605;1289;22540;-85
2023/03/28 01:31:18;;;;;;;20.00;11.50;;;;;;;-3.24;100.00;98362.08;131993;1289;23025;-85
2023/03/28 01:34:20;;;;;;;20.50;11.30;;;;;;;-3.26;100.00;98359.14;131874;1289;25486;-85
2023/03/28 01:37:24;;;;;;;19.30;10.90;;;;;;;-3.27;100.00;98355.80;131928;1280;22536;-84
2023/03/28 01:40:27;;;;;;;21.90;10.80;;;;;;;-3.31;100.00;98352.81;131929;1289;24452;-85
2023/03/28 01:43:30;;;;;;;16.90;9.40;;;;;;;-3.37;100.00;98358.16;131978;1289;22543;-85
2023/03/28 01:46:33;;;;;;;22.30;10.50;;;;;;;-3.45;100.00;98357.84;131954;1289;22640;-86
2023/03/28 01:49:36;;;;;;;18.50;10.70;;;;;;;-3.54;100.00;98358.03;131920;1289;25509;-86
2023/03/28 01:52:39;;;;;;;20.50;11.10;;;;;;;-3.60;100.00;98359.35;131992;1285;25266;-85
2023/03/28 01:55:41;;;;;;;21.00;13.00;;;;;;;-3.64;100.00;98362.30;132119;1289;25441;-86
2023/03/28 01:58:45;;;;;;;20.20;12.00;;;;;;;-3.63;100.00;98364.66;132052;1289;22649;-85
2023/03/28 02:01:48;;;;;;;21.70;11.00;;;;;;;-3.59;100.00;98360.09;132325;1289;22694;-86
2023/03/28 02:04:51;;;;;;;21.10;11.90;;;;;;;-3.53;100.00;98361.91;132170;1289;24883;-85
2023/03/28 02:07:54;;;;;;;23.10;11.50;;;;;;;-3.49;100.00;98360.79;131987;1289;22577;-86
2023/03/28 02:10:57;;;;;;;19.70;11.10;;;;;;;-3.48;100.00;98356.98;131990;1274;25470;-85
2023/03/28 02:13:59;;;;;;;18.70;12.20;;;;;;;-3.48;100.00;98350.14;131926;1289;22538;-85
2023/03/28 02:17:03;;;;;;;23.60;13.00;;;;;;;-3.50;100.00;98350.30;131901;1289;24298;-85
2023/03/28 02:20:10;;;;;;;24.60;12.30;;;;;;;-3.51;100.00;98349.36;131916;1289;22544;-87
2023/03/28 02:23:13;;;;;;;24.70;11.50;;;;;;;-3.54;100.00;98347.33;131901;1289;22560;-86
2023/03/28 02:26:17;;;;;;;23.90;12.60;;;;;;;-3.59;100.00;98340.63;131935;1289;23019;-86
2023/03/28 02:29:20;;;;;;;24.10;12.80;;;;;;;-3.64;100.00;98338.08;131968;1289;22545;-85
2023/03/28 02:32:23;;;;;;;24.40;13.00;;;;;;;-3.68;100.00;98333.77;131686;1289;275206;-88
2023/03/28 02:35:26;;;;;;;23.20;12.60;;;;;;;-3.71;100.00;98328.14;131871;1289;22543;-87
2023/03/28 02:38:28;;;;;;;32.70;15.70;;;;;;;-3.75;100.00;98320.02;131925;1289;22561;-86
2023/03/28 02:41:31;;;;;;;29.10;15.50;;;;;;;-3.77;100.00;98321.67;131969;1288;22543;-86
2023/03/28 02:44:34;;;;;;;21.50;12.40;;;;;;;-3.73;100.00;98316.15;131989;1288;22553;-87
2023/03/28 02:47:37;;;;;;;28.50;13.60;;;;;;;-3.69;100.00;98322.35;132023;1288;23307;-85
2023/03/28 02:50:40;;;;;;;20.90;12.00;;;;;;;-3.65;100.00;98317.85;132074;1288;25441;-86
2023/03/28 02:53:43;;;;;;;22.10;12.90;;;;;;;-3.62;100.00;98306.20;132097;1288;22609;-85
2023/03/28 02:56:49;;;;;;;24.20;13.90;;;;;;;-3.59;100.00;98310.27;131830;1288;22555;-85
2023/03/28 02:59:52;;;;;;;20.10;10.60;;;;;;;-3.60;100.00;98306.91;131806;1285;25396;-86
2023/03/28 03:02:55;;;;;;;22.80;12.30;;;;;;;-3.63;100.00;98306.78;131619;1289;25380;-85
2023/03/28 03:05:59;;;;;;;20.10;12.00;;;;;;;-3.63;100.00;98296.73;131636;1288;22548;-85
2023/03/28 03:09:03;;;;;;;24.20;11.20;;;;;;;-3.61;100.00;98296.61;131658;1289;25515;-85
2023/03/28 03:12:06;;;;;;;27.90;11.90;;;;;;;-3.59;100.00;98307.88;131578;1289;22704;-85
2023/03/28 03:15:09;;;;;;;21.50;11.40;;;;;;;-3.55;100.00;98302.64;131581;1289;22952;-85
2023/03/28 03:18:12;;;;;;;25.40;13.90;;;;;;;-3.48;100.00;98298.47;131607;1289;25389;-85
2023/03/28 03:21:15;;;;;;;20.70;12.10;;;;;;;-3.39;100.00;98299.23;131554;1289;25310;-85
2023/03/28 03:24:18;;;;;;;21.60;12.30;;;;;;;-3.29;100.00;98305.05;131945;1289;22641;-85
2023/03/28 03:27:21;;;;;;;21.00;10.40;;;;;;;-3.17;100.00;98309.19;131613;1288;25974;-88
2023/03/28 03:30:24;;;;;;;22.00;11.60;;;;;;;-3.03;100.00;98308.05;132121;1279;22544;-91
2023/03/28 03:33:27;;;;;;;17.00;10.80;;;;;;;-2.88;100.00;98305.80;132012;1289;24237;-86
2023/03/28 03:36:30;;;;;;;22.80;12.00;;;;;;;-2.79;100.00;98300.79;131717;1289;22543;-87
2023/03/28 03:39:34;;;;;;;22.30;12.50;;;;;;;-2.74;100.00;98299.25;131622;1288;24356;-86
2023/03/28 03:42:37;;;;;;;20.10;11.60;;;;;;;-2.72;100.00;98295.82;131763;1289;24290;-88
2023/03/28 03:45:40;;;;;;;26.20;11.10;;;;;;;-2.70;100.00;98299.30;131896;1289;24418;-86
2023/03/28 03:48:43;;;;;;;14.80;8.40;;;;;;;-2.69;100.00;98300.56;132085;1289;22564;-85
2023/03/28 03:51:46;;;;;;;19.70;11.60;;;;;;;-2.68;100.00;98296.55;132135;1283;22661;-85
2023/03/28 03:54:48;;;;;;;20.10;10.60;;;;;;;-2.61;100.00;98297.13;131863;1288;22549;-85
2023/03/28 03:57:51;;;;;;;19.60;10.90;;;;;;;-2.48;100.00;98295.00;131793;1279;22543;-85
2023/03/28 04:00:54;;;;;;;17.60;11.00;;;;;;;-2.35;100.00;98294.94;131796;1289;22539;-91
2023/03/28 04:03:57;;;;;;;26.50;11.30;;;;;;;-2.19;100.00;98292.45;132007;1285;25365;-84
2023/03/28 04:07:01;;;;;;;21.70;12.00;;;;;;;-2.05;100.00;98293.66;131921;1289;22624;-86
2023/03/28 04:10:04;;;;;;;17.20;9.80;;;;;;;-1.96;100.00;98289.56;131834;1289;22536;-90
2023/03/28 04:13:07;;;;;;;15.30;9.70;;;;;;;-1.92;100.00;98289.83;131895;1289;24212;-89
2023/03/28 04:16:10;;;;;;;23.00;10.60;;;;;;;-1.92;100.00;98293.04;131815;1289;23887;-89
2023/03/28 04:19:14;;;;;;;16.80;9.50;;;;;;;-1.91;100.00;98295.75;131937;1289;24241;-85
2023/03/28 04:22:18;;;;;;;18.00;10.80;;;;;;;-1.89;100.00;98296.94;131882;1270;22687;-86
2023/03/28 04:25:23;;;;;;;19.40;11.40;;;;;;;-1.82;100.00;98298.13;131852;1289;22550;-84
2023/03/28 04:28:26;;;;;;;16.20;9.40;;;;;;;-1.72;100.00;98297.05;131579;1289;25449;-84
2023/03/28 04:31:29;;;;;;;18.90;9.90;;;;;;;-1.60;100.00;98293.47;131639;1289;23566;-83
2023/03/28 04:34:32;;;;;;;14.50;9.00;;;;;;;-1.50;100.00;98297.66;131651;1289;25513;-85
2023/03/28 04:37:36;;;;;;;14.50;8.50;;;;;;;-1.42;100.00;98296.55;131864;1289;23006;-85
2023/03/28 04:40:39;;;;;;;16.40;10.30;;;;;;;-1.35;100.00;98292.98;131558;1289;22576;-83
2023/03/28 04:43:42;;;;;;;22.00;10.30;;;;;;;-1.29;100.00;98291.64;131591;1289;24408;-82
2023/03/28 04:46:45;;;;;;;15.80;10.50;;;;;;;-1.27;100.00;98284.95;131557;1289;22536;-83
2023/03/28 04:49:48;;;;;;;16.50;10.60;;;;;;;-1.22;100.00;98288.31;131745;1289;22580;-83
2023/03/28 04:52:51;;;;;;;12.70;9.00;;;;;;;-1.15;100.00;98290.38;131719;1289;25456;-86
2023/03/28 04:55:54;;;;;;;15.90;9.80;;;;;;;-1.06;100.00;98287.82;131861;1289;24409;-86
2023/03/28 04:58:57;;;;;;;16.90;10.70;;;;;;;-0.96;100.00;98287.38;132209;1289;22602;-88
2023/03/28 05:02:00;;;;;;;13.10;10.00;;;;;;;-0.87;100.00;98290.29;132127;1289;25972;-86
2023/03/28 05:05:03;;;;;;;17.10;11.10;;;;;;;-0.82;100.00;98298.19;133042;1289;22558;-88
2023/03/28 05:08:07;;;;;;;12.60;9.70;;;;;;;-0.79;100.00;98297.46;132662;1289;26415;-87
2023/03/28 05:11:10;;;;;;;12.80;9.20;;;;;;;-0.74;100.00;98300.81;132556;1289;22704;-89
2023/03/28 05:14:13;;;;;;;15.30;8.60;;;;;;;-0.67;100.00;98297.46;132015;1289;22549;-89
2023/03/28 05:17:16;;;;;;;10.80;8.70;;;;;;;-0.60;100.00;98299.35;131992;1289;22537;-91
2023/03/28 05:20:20;;;;;;;13.70;9.40;;;;;;;-0.55;100.00;98300.34;132190;1289;24245;-90
2023/03/28 05:23:23;;;;;;;12.70;9.40;;;;;;;-0.52;100.00;98304.27;132322;1289;22841;-91
2023/03/28 05:26:26;;;;;;;12.80;9.00;;;;;;;-0.48;100.00;98307.20;132089;1289;22498;-91
2023/03/28 05:29:29;;;;;;;20.70;8.90;;;;;;;-0.44;100.00;98306.04;131966;1289;22756;-90
2023/03/28 05:32:32;;;;;;;8.00;7.20;;;;;;;-0.36;100.00;98305.39;132171;1289;22552;-89
2023/03/28 05:35:36;;;;;;;12.80;8.70;;;;;;;-0.28;100.00;98301.97;132420;1289;24212;-90
2023/03/28 05:38:39;;;;;;;12.70;8.00;;;;;;;-0.20;100.00;98302.88;132330;1286;24205;-89
2023/03/28 05:41:41;;;;;;;10.90;8.50;;;;;;;-0.17;100.00;98304.92;133153;1289;25306;-89
2023/03/28 05:44:44;;;;;;;9.50;7.90;;;;;;;-0.19;100.00;98309.47;133503;1288;23752;-91
2023/03/28 05:47:47;;;;;;;10.90;8.40;;;;;;;-0.19;100.00;98308.98;133278;1288;22595;-89
2023/03/28 05:50:50;;;;;;;10.90;7.50;;;;;;;-0.14;100.00;98303.77;133353;1285;24241;-89
2023/03/28 05:53:53;;;;;;;9.60;8.00;;;;;;;-0.09;100.00;98304.57;132005;1288;22562;-89
2023/03/28 05:56:56;;;;;;;7.50;6.70;;;;;;;-0.02;100.00;98305.55;132131;1267;22556;-90
2023/03/28 05:59:59;;;;;;;10.60;7.90;;;;;;;0.10;100.00;98308.02;132146;1288;22484;-89
2023/03/28 06:03:02;;;;;;;9.50;7.90;;;;;;;0.24;100.00;98308.95;132000;1283;24268;-89
2023/03/28 06:06:05;;;;;;;10.30;6.80;;;;;;;0.49;100.00;98307.27;132044;1286;22591;-90
2023/03/28 06:09:09;;;;;;;9.80;7.30;;;;;;;0.57;100.00;98306.92;132534;1288;22564;-89
2023/03/28 06:12:12;;;;;;;12.70;8.50;;;;;;;0.61;100.00;98310.09;132702;1288;22539;-89
2023/03/28 06:15:16;;;;;;;8.70;7.00;;;;;;;0.64;100.00;98310.13;132125;1288;22578;-89
2023/03/28 06:18:19;;;;;;;12.40;7.20;;;;;;;0.68;100.00;98309.66;132035;1288;23885;-90
2023/03/28 06:21:22;;;;;;;8.90;6.70;;;;;;;0.78;100.00;98310.20;132026;1288;22615;-90
2023/03/28 06:24:24;;;;;;;7.50;5.80;;;;;;;1.01;100.00;98313.41;132133;1288;23884;-89
2023/03/28 06:27:27;;;;;;;8.80;5.90;;;;;;;1.24;100.00;98318.55;131948;1288;22674;-90
2023/03/28 06:30:30;;;;;;;8.20;6.40;;;;;;;1.30;100.00;98316.06;131861;1286;22587;-89
2023/03/28 06:33:33;;;;;;;7.60;6.10;;;;;;;1.34;100.00;98320.05;131908;1285;22606;-89
2023/03/28 06:36:36;;;;;;;7.00;5.60;;;;;;;1.38;100.00;98322.61;131864;1288;22487;-89
2023/03/28 06:39:39;;;;;;;8.80;5.70;;;;;;;1.55;100.00;98328.70;131874;1288;22508;-91
2023/03/28 06:42:43;;;;;;;7.30;5.20;;;;;;;1.65;100.00;98325.95;134009;1288;22512;-90
2023/03/28 06:45:46;;;;;;;8.00;6.00;;;;;;;1.75;100.00;98329.61;135091;1288;22560;-90
2023/03/28 06:48:49;;;;;;;7.70;4.60;;;;;;;1.95;100.00;98333.36;133986;1288;25321;-91
2023/03/28 06:51:52;;;;;;;8.70;6.10;;;;;;;2.04;100.00;98334.09;132883;1288;22765;-90
2023/03/28 06:54:55;;;;;;;10.20;6.40;;;;;;;1.98;100.00;98334.48;133495;1281;24243;-90
2023/03/28 06:57:57;;;;;;;8.50;6.50;;;;;;;1.88;100.00;98341.67;133443;1288;22744;-89
2023/03/28 07:01:00;;;;;;;6.50;4.20;;;;;;;1.71;100.00;98342.80;132948;1289;24411;-90
2023/03/28 07:04:03;;;;;;;3.80;3.40;;;;;;;1.61;100.00;98348.68;132249;1289;22487;-90
2023/03/28 07:07:08;;;;;;;9.10;5.10;;;;;;;1.51;100.00;98362.61;132268;1267;22539;-90
2023/03/28 07:10:11;;;;;;;5.50;4.70;;;;;;;1.35;100.00;98367.77;132571;1288;22560;-90
2023/03/28 07:13:13;;;;;;;5.40;4.00;;;;;;;1.34;100.00;98363.36;132879;1289;25297;-88
2023/03/28 07:16:16;;;;;;;4.80;4.40;;;;;;;1.32;100.00;98366.48;132642;1288;24237;-89
2023/03/28 07:19:19;;;;;;;4.70;4.00;;;;;;;1.29;100.00;98371.73;131888;1286;22585;-90
2023/03/28 07:22:22;;;;;;;6.30;4.50;;;;;;;1.22;100.00;98373.70;131858;1288;24291;-89
2023/03/28 07:25:25;;;;;;;4.50;4.10;;;;;;;1.27;100.00;98378.29;131948;1289;22672;-89
2023/03/28 07:28:28;;;;;;;5.00;3.80;;;;;;;1.32;100.00;98381.77;131984;1289;22668;-90
2023/03/28 07:31:31;;;;;;;5.40;3.40;;;;;;;1.33;100.00;98384.48;131902;1288;25506;-90
2023/03/28 07:34:34;;;;;;;3.50;3.10;;;;;;;1.39;100.00;98383.21;132032;1272;24241;-90
2023/03/28 07:37:37;;;;;;;7.20;4.10;;;;;;;1.52;100.00;98389.02;131979;1289;22580;-91
2023/03/28 07:40:40;;;;;;;6.10;4.30;;;;;;;1.62;100.00;98396.83;131890;1283;22658;-90
2023/03/28 07:43:43;;;;;;;4.30;3.90;;;;;;;1.62;100.00;98389.70;131809;1285;22777;-88
2023/03/28 07:46:50;;;;;;;3.60;3.30;;;;;;;1.63;100.00;98394.24;131924;1289;22539;-87
2023/03/28 07:49:53;;;;;;;3.80;3.50;;;;;;;1.57;100.00;98396.15;131844;1289;22783;-88
2023/03/28 07:52:56;;;;;;;3.90;3.60;;;;;;;1.50;100.00;98398.49;131893;1289;26537;-89
2023/03/28 07:55:59;;;;;;;5.00;3.20;;;;;;;1.47;100.00;98402.77;132119;1289;22562;-89
2023/03/28 07:59:03;;;;;;;9.40;5.50;;;;;;;1.49;100.00;98410.83;132014;1289;26533;-90
2023/03/28 08:02:06;;;;;;;5.30;4.60;;;;;;;1.45;100.00;98420.07;131887;1289;24233;-89
2023/03/28 08:05:09;;;;;;;4.60;4.10;;;;;;;1.43;100.00;98412.80;131910;1289;24237;-90
2023/03/28 08:08:12;;;;;;;5.10;4.60;;;;;;;1.36;100.00;98417.71;131920;1289;25019;-89
2023/03/28 08:11:14;;;;;;;4.40;3.70;;;;;;;1.29;100.00;98422.33;132117;1289;25441;-88
2023/03/28 08:14:19;;;;;;;7.90;6.10;;;;;;;1.32;100.00;98426.83;132607;1289;22564;-88
2023/03/28 08:17:22;;;;;;;5.70;4.20;;;;;;;1.49;100.00;98433.48;132505;1289;25265;-88
2023/03/28 08:20:25;;;;;;;7.60;5.80;;;;;;;1.48;100.00;98438.58;131936;1289;23005;-88
2023/03/28 08:23:28;;;;;;;7.60;6.00;;;;;;;1.41;100.00;98447.59;131875;1289;25409;-89
2023/03/28 08:26:30;;;;;;;10.30;6.20;;;;;;;1.21;100.00;98451.33;131864;1289;24297;-89
2023/03/28 08:29:36;;;;;;;11.60;8.10;;;;;;;1.06;100.00;98456.19;131875;1289;24349;-88
2023/03/28 08:32:39;;;;;;;7.80;6.70;;;;;;;0.92;100.00;98466.07;131868;1289;23904;-89
2023/03/28 08:35:42;;;;;;;10.80;6.80;;;;;;;0.89;100.00;98464.63;131928;1289;22550;-89
2023/03/28 08:38:45;;;;;;;10.60;7.30;;;;;;;0.88;100.00;98465.02;132118;1289;24219;-88
2023/03/28 08:41:48;;;;;;;11.90;8.60;;;;;;;0.86;100.00;98480.38;131866;1289;22538;-89
2023/03/28 08:44:51;;;;;;;12.90;10.40;;;;;;;0.77;100.00;98475.77;131900;1289;24252;-89
2023/03/28 08:47:54;;;;;;;10.50;8.80;;;;;;;0.68;100.00;98482.65;132110;1289;25509;-88
2023/03/28 08:50:57;;;;;;;7.80;7.00;;;;;;;0.60;100.00;98489.84;132085;1289;22539;-89
2023/03/28 08:54:00;;;;;;;20.60;8.10;;;;;;;0.40;100.00;98500.96;132988;1289;22773;-89
2023/03/28 08:57:03;;;;;;;8.70;5.90;;;;;;;0.22;100.00;98501.70;132515;1285;25965;-89
2023/03/28 09:00:12;;;;;;;6.40;5.80;;;;;;;0.15;100.00;98514.12;132155;1289;25458;-88
2023/03/28 09:03:15;;;;;;;;;;;;;;;0.07;100.00;98519.40;132080;1289;22654;-88
2023/03/28 09:06:18;;;;;;;8.50;6.60;;;;;;;-0.06;100.00;98519.16;132015;1289;22546;-89
2023/03/28 09:09:21;;;;;;;5.60;5.10;;;;;;;-0.09;100.00;98530.04;132134;1274;22619;-89
2023/03/28 09:12:24;;;;;;;6.00;5.00;;;;;;;-0.07;100.00;98532.81;132429;1289;23076;-88
2023/03/28 09:15:27;;;;;;;3.20;2.90;;;;;;;0.01;100.00;98537.84;132965;1289;23097;-89
2023/03/28 09:18:31;;;;;;;3.60;3.30;;;;;;;0.05;100.00;98549.39;132088;1289;22551;-88
2023/03/28 09:21:33;;;;;;;3.20;3.00;;;;;;;0.07;100.00;98558.69;131937;1286;24407;-89
2023/03/28 09:24:36;;;;;;;5.30;4.50;;;;;;;-0.04;100.00;98566.19;131860;1289;22549;-88
2023/03/28 09:27:39;;;;;;;5.20;3.30;;;;;;;-0.15;100.00;98591.07;131807;1289;24498;-89
2023/03/28 09:30:42;;;;;;;5.50;3.80;;;;;;;-0.26;100.00;98598.09;131835;1289;22565;-89
2023/03/28 09:33:45;;;;;;;4.30;3.90;;;;;;;-0.25;100.00;98588.54;131821;1289;24646;-89
2023/03/28 09:36:48;;;;;;;4.30;3.30;;;;;;;-0.13;100.00;98594.39;131864;1289;23002;-87
2023/03/28 09:39:52;;;;;;;4.90;4.00;;;;;;;-0.07;100.00;98596.87;131816;1289;23149;-88
2023/03/28 09:42:55;;;;;;;6.30;3.90;;;;;;;-0.03;100.00;98607.83;131847;1289;23154;-88
2023/03/28 09:45:59;;;;;;;3.70;3.40;;;;;;;-0.04;100.00;98613.23;131863;1289;25420;-88
2023/03/28 09:49:01;;;;;;;4.40;4.00;;;;;;;-0.02;100.00;98613.77;132015;1289;24218;-89
2023/03/28 09:52:04;;;;;;;3.80;3.50;;;;;;;0.13;100.00;98618.01;132067;1289;22546;-88
2023/03/28 09:55:07;;;;;;;4.50;3.80;;;;;;;0.36;100.00;98615.69;131855;1289;24310;-91
2023/03/28 09:58:10;;;;;;;6.00;4.80;;;;;;;0.70;100.00;98615.67;132260;1289;22562;-88
2023/03/28 10:01:13;;;;;;;6.20;4.50;;;;;;;0.99;100.00;98618.16;132000;1289;22683;-90
2023/03/28 10:04:16;;;;;;;5.50;4.00;;;;;;;1.18;100.00;98633.98;131896;1289;22789;-89
2023/03/28 10:07:21;;;;;;;7.30;4.20;;;;;;;1.30;100.00;98641.13;131970;1289;23321;-89
2023/03/28 10:10:25;;;;;;;5.10;4.60;;;;;;;1.39;100.00;98645.02;132020;1289;22480;-88
2023/03/28 10:13:27;;;;;;;6.40;3.90;;;;;;;1.47;100.00;98650.15;132340;1289;22551;-88
2023/03/28 10:16:31;;;;;;;7.50;3.80;;;;;;;1.59;100.00;98650.47;132670;1289;25439;-89
2023/03/28 10:19:34;;;;;;;4.10;3.30;;;;;;;1.71;100.00;98666.19;133093;1289;23332;-88
2023/03/28 10:22:37;;;;;;;3.20;2.90;;;;;;;1.75;100.00;98680.02;132678;1289;22691;-89
2023/03/28 10:25:40;;;;;;;3.30;3.00;;;;;;;1.62;100.00;98670.90;132328;1289;24242;-89
2023/03/28 10:28:43;;;;;;;3.30;2.70;;;;;;;1.54;100.00;98665.21;132177;1289;25744;-89
2023/03/28 10:31:46;;;;;;;4.00;3.20;;;;;;;1.50;100.00;98667.93;131982;1273;24338;-89
2023/03/28 10:34:49;;;;;;;4.30;3.60;;;;;;;1.66;100.00;98661.61;131982;1289;22582;-88
2023/03/28 10:37:52;;;;;;;4.00;3.50;;;;;;;1.87;100.00;98665.41;131998;1289;22555;-90
2023/03/28 10:40:55;;;;;;;3.70;3.20;;;;;;;2.08;100.00;98670.42;131976;1289;22564;-89
2023/03/28 10:43:58;;;;;;;3.10;2.80;;;;;;;2.32;100.00;98662.05;131893;1289;22782;-88
2023/03/28 10:47:01;;;;;;;4.80;3.10;;;;;;;2.45;100.00;98664.16;131874;1288;24077;-89
2023/03/28 10:50:03;;;;;;;4.80;2.50;;;;;;;2.62;100.00;98672.25;131855;1288;22677;-89
2023/03/28 10:53:09;;;;;;;3.70;2.20;;;;;;;2.59;100.00;98678.51;131868;1289;24285;-89
2023/03/28 10:56:12;;;;;;;6.00;3.30;;;;;;;2.59;100.00;98679.19;131914;1279;22558;-88
2023/03/28 10:59:16;;;;;;;3.20;2.90;;;;;;;2.60;100.00;98677.23;132055;1289;22550;-89
2023/03/28 11:02:19;;;;;;;2.70;2.00;;;;;;;2.63;100.00;98694.89;131994;1288;22605;-90
2023/03/28 11:05:22;;;;;;;3.00;2.20;;;;;;;2.51;100.00;98700.76;132642;1288;24376;-89
2023/03/28 11:08:25;;;;;;;1.80;1.70;;;;;;;2.41;100.00;98711.04;132891;1288;22641;-89
2023/03/28 11:11:28;;;;;;;7.30;2.00;;;;;;;2.35;96.61;98708.79;133097;1289;22551;-87
2023/03/28 11:14:31;;;;;;;1.80;1.70;;;;;;;2.24;84.31;98722.46;132421;1288;24396;-90
2023/03/28 11:17:34;;;;;;;2.20;1.90;;;;;;;2.18;80.21;98715.02;132118;1289;22708;-88
2023/03/28 11:20:37;;;;;;;8.50;2.90;;;;;;;2.18;79.96;98713.64;131895;1289;22644;-88
2023/03/28 11:23:40;;;;;;;5.70;3.00;;;;;;;2.22;80.26;98719.36;131971;1289;22540;-88
2023/03/28 11:26:43;;;;;;;4.60;2.70;;;;;;;2.21;79.34;98726.84;131908;1289;25363;-88
2023/03/28 11:29:48;;;;;;;4.80;3.50;;;;;;;2.16;74.05;98736.72;131892;1289;25571;-88
2023/03/28 11:32:50;;;;;;;4.40;2.40;;;;;;;2.15;73.09;98733.55;131972;1289;22764;-90
2023/03/28 11:35:53;;;;;;;4.30;2.50;;;;;;;2.17;72.66;98743.83;132022;1289;22716;-88
2023/03/28 11:38:56;;;;;;;2.40;2.00;;;;;;;2.27;73.04;98739.59;133103;1289;22743;-90
2023/03/28 11:41:59;;;;;;;2.60;2.30;;;;;;;2.46;76.23;98727.65;133145;1289;22647;-88
2023/03/28 11:45:02;;;;;;;3.10;2.40;;;;;;;2.60;76.03;98728.20;132916;1289;22591;-88
2023/03/28 11:48:05;;;;;;;2.40;2.20;;;;;;;2.69;76.01;98732.67;132013;1289;24339;-88
2023/03/28 11:51:08;;;;;;;3.00;2.80;;;;;;;2.58;72.93;98747.31;132131;1289;24176;-88
2023/03/28 11:54:11;;;;;;;2.70;1.80;;;;;;;2.44;72.92;98757.98;132194;1289;22799;-89
2023/03/28 11:57:14;;;;;;;3.80;3.00;;;;;;;2.33;72.55;98754.16;132019;1289;22560;-89
2023/03/28 12:00:18;;;;;;;1.80;1.70;;;;;;;2.28;73.25;98762.12;131955;1289;22789;-88
2023/03/28 12:03:21;;;;;;;4.00;3.40;;;;;;;2.27;74.21;98759.04;133469;1289;22510;-87
2023/03/28 12:06:24;;;;;;;3.20;2.70;;;;;;;2.33;74.49;98748.45;133158;1289;22561;-87
2023/03/28 12:09:27;;;;;;;3.50;3.20;;;;;;;2.23;72.45;98746.98;134225;1289;23083;-87
2023/03/28 12:12:30;;;;;;;5.10;3.40;;;;;;;2.18;75.22;98746.84;134302;1283;23805;-87
2023/03/28 12:15:33;;;;;;;2.70;2.40;;;;;;;2.15;73.58;98752.63;134005;1289;22577;-90
2023/03/28 12:18:36;;;;;;;5.40;3.50;;;;;;;2.11;72.33;98756.27;133528;1277;23845;-90
2023/03/28 12:21:39;;;;;;;4.80;3.60;;;;;;;2.16;72.53;98735.88;132275;1289;25461;-89
2023/03/28 12:24:41;;;;;;;3.60;2.20;;;;;;;2.44;73.63;98731.64;132209;1285;25979;-88
2023/03/28 12:27:45;;;;;;;2.80;2.20;;;;;;;2.59;69.64;98743.34;132014;1289;25321;-88
2023/03/28 12:30:48;;;;;;;3.40;2.80;;;;;;;2.50;69.74;98740.45;131880;1289;22536;-88
2023/03/28 12:33:51;;;;;;;2.90;2.60;;;;;;;2.39;69.13;98744.29;131988;1282;24406;-92
2023/03/28 12:36:54;;;;;;;2.30;1.90;;;;;;;2.31;69.54;98736.88;131918;1289;24281;-88
2023/03/28 12:39:57;;;;;;;4.90;2.40;;;;;;;2.31;69.51;98739.63;131935;1289;24903;-88
2023/03/28 12:43:00;;;;;;;3.70;2.70;;;;;;;2.38;68.49;98745.27;131971;1289;25518;-88
2023/03/28 12:46:03;;;;;;;3.40;2.90;;;;;;;2.50;64.49;98746.13;132411;1289;22584;-88
2023/03/28 12:49:06;;;;;;;3.90;2.70;;;;;;;2.66;59.63;98742.95;132727;1289;22573;-88
2023/03/28 12:52:09;;;;;;;2.50;2.30;;;;;;;2.79;57.78;98736.45;132806;1289;25575;-86
2023/03/28 12:55:12;;;;;;;3.00;2.30;;;;;;;2.92;57.23;98747.63;132688;1289;22554;-87
2023/03/28 12:58:15;;;;;;;2.90;2.20;;;;;;;2.95;55.63;98742.67;132316;1289;25427;-89
2023/03/28 13:01:17;;;;;;;4.10;3.60;;;;;;;2.90;56.18;98766.89;132005;1289;24233;-89
2023/03/28 13:04:20;;;;;;;3.00;2.30;;;;;;;2.80;61.92;98783.02;132426;1289;25807;-88
2023/03/28 13:07:23;;;;;;;3.60;2.20;;;;;;;2.47;73.89;98800.00;132710;1285;22542;-88
2023/03/28 13:10:26;;;;;;;3.00;2.80;;;;;;;2.10;80.44;98795.95;132032;1289;25565;-88
2023/03/28 13:13:29;;;;;;;4.40;2.80;;;;;;;1.82;80.16;98784.11;131930;1289;22941;-89
2023/03/28 13:16:32;;;;;;;3.40;2.60;;;;;;;1.66;83.76;98788.23;131966;1289;22699;-88
2023/03/28 13:19:36;;;;;;;3.50;2.50;;;;;;;1.42;92.53;98801.18;131939;1289;22538;-89
2023/03/28 13:22:39;;;;;;;3.70;2.60;;;;;;;1.11;94.05;98806.38;131977;1289;24219;-89
2023/03/28 13:25:42;;;;;;;3.90;3.00;;;;;;;0.81;98.34;98817.55;131944;1289;23124;-89
2023/03/28 13:28:45;;;;;;;3.60;3.20;;;;;;;0.53;100.00;98820.50;131915;1289;22790;-88
2023/03/28 13:31:47;;;;;;;3.40;3.20;;;;;;;0.34;100.00;98824.86;131903;1289;24272;-88
2023/03/28 13:34:50;;;;;;;4.70;4.00;;;;;;;0.17;100.00;98828.14;131984;1289;22548;-88
2023/03/28 13:37:53;;;;;;;6.70;5.40;;;;;;;0.07;100.00;98820.08;131913;1289;24277;-88
2023/03/28 13:40:58;;;;;;;7.70;6.40;;;;;;;0.15;100.00;98817.13;131928;1274;22546;-89
2023/03/28 13:44:01;;;;;;;33.40;6.20;;;;;;;0.31;100.00;98820.07;131901;1289;22570;-87
2023/03/28 13:47:04;;;;;;;6.50;5.90;;;;;;;0.41;100.00;98821.55;131903;1289;25403;-87
2023/03/28 13:50:07;;;;;;;5.90;5.10;;;;;;;0.49;100.00;98822.86;131928;1289;25368;-89
2023/03/28 13:53:09;;;;;;;6.90;6.00;;;;;;;0.54;100.00;98826.92;132005;1289;22550;-85
2023/03/28 13:56:12;;;;;;;5.90;5.40;;;;;;;0.52;100.00;98813.48;132784;1289;22536;-85
2023/03/28 13:59:16;;;;;;;5.40;4.90;;;;;;;0.44;100.00;98816.36;131895;1289;23881;-87
2023/03/28 14:02:19;;;;;;;4.80;4.20;;;;;;;0.37;100.00;98823.30;131933;1284;22779;-86